createdAt,value
2022-10-23T04:01:28.615Z,10.27
2022-10-23T04:05:42.326Z,10.28
2022-10-23T04:09:53.871Z,10.27
2022-10-23T04:14:05.432Z,10.27
2022-10-23T04:18:17.963Z,10.20
2022-10-23T04:22:29.560Z,10.25
2022-10-23T04:26:41.100Z,10.25
2022-10-23T04:30:55.295Z,10.27
2022-10-23T04:35:07.652Z,10.34
2022-10-23T04:39:19.228Z,10.49
2022-10-23T04:43:31.781Z,10.47
2022-10-23T04:47:43.471Z,10.52
2022-10-23T04:51:55.001Z,10.47
2022-10-23T04:56:15.884Z,10.44
2022-10-23T05:00:34.457Z,10.38
2022-10-23T05:04:48.339Z,10.36
2022-10-23T05:09:35.979Z,10.37
2022-10-23T05:14:05.417Z,10.32
2022-10-23T05:18:46.191Z,10.31
2022-10-23T05:23:00.494Z,10.25
2022-10-23T05:27:12.835Z,10.16
2022-10-23T05:31:26.144Z,10.13
2022-10-23T05:35:46.936Z,10.16
2022-10-23T05:40:00.938Z,10.15
2022-10-23T05:44:12.520Z,10.07
2022-10-23T05:48:40.511Z,10.01
2022-10-23T05:53:11.469Z,10.05
2022-10-23T05:57:34.913Z,10.05
2022-10-23T06:01:50.880Z,10.01
2022-10-23T06:06:13.972Z,9.98
2022-10-23T06:10:31.942Z,10.04
2022-10-23T06:14:47.249Z,10.04
2022-10-23T06:18:59.698Z,10.01
2022-10-23T06:23:11.903Z,10.02
2022-10-23T06:27:52.804Z,10.10
2022-10-23T06:32:04.633Z,10.25
2022-10-23T06:36:16.175Z,10.28
2022-10-23T06:40:28.432Z,10.44
2022-10-23T06:44:44.258Z,10.40
2022-10-23T06:48:56.612Z,10.37
2022-10-23T06:53:12.346Z,10.48
2022-10-23T06:57:29.684Z,10.60
2022-10-23T07:01:41.526Z,10.70
2022-10-23T07:05:55.252Z,10.79
2022-10-23T07:10:07.276Z,10.82
2022-10-23T07:14:27.346Z,10.96
2022-10-23T07:18:39.685Z,11.07
2022-10-23T07:23:11.802Z,11.19
2022-10-23T07:27:25.723Z,11.36
2022-10-23T07:31:42.181Z,11.54
2022-10-23T07:36:10.002Z,11.82
2022-10-23T07:40:21.815Z,11.95
2022-10-23T07:44:36.184Z,12.04
2022-10-23T07:48:48.080Z,12.17
2022-10-23T07:53:01.327Z,12.34
2022-10-23T07:57:23.756Z,12.38
2022-10-23T08:01:42.902Z,12.42
2022-10-23T08:05:56.176Z,12.39
2022-10-23T08:10:08.246Z,12.39
2022-10-23T08:14:22.373Z,12.42
2022-10-23T08:18:34.805Z,12.39
2022-10-23T08:22:46.519Z,12.34
2022-10-23T08:27:03.690Z,12.27
2022-10-23T08:31:19.370Z,12.21
2022-10-23T08:35:50.968Z,12.10
2022-10-23T08:40:36.563Z,12.13
2022-10-23T08:45:34.889Z,12.21
2022-10-23T08:49:59.957Z,12.30
2022-10-23T08:54:20.416Z,12.44
2022-10-23T09:03:05.487Z,12.55
2022-10-23T09:07:35.201Z,12.59
2022-10-23T09:12:11.468Z,12.69
2022-10-23T09:16:25.768Z,12.81
2022-10-23T09:20:37.390Z,12.91
2022-10-23T09:24:53.604Z,13.03
2022-10-23T09:29:22.798Z,13.27
2022-10-23T09:33:37.044Z,13.48
2022-10-23T09:37:52.987Z,13.59
2022-10-23T09:42:22.302Z,13.69
2022-10-23T09:46:47.132Z,13.78
2022-10-23T09:51:04.244Z,13.90
2022-10-23T09:55:23.031Z,13.98
2022-10-23T09:59:34.714Z,14.03
2022-10-23T10:03:51.129Z,14.07
2022-10-23T10:08:08.989Z,14.22
2022-10-23T10:12:37.753Z,14.47
2022-10-23T10:17:00.855Z,14.91
2022-10-23T10:21:28.485Z,15.18
2022-10-23T10:25:58.588Z,15.30
2022-10-23T10:30:20.834Z,15.47
2022-10-23T10:34:54.475Z,15.69
2022-10-23T10:39:17.663Z,16.08
2022-10-23T10:43:51.947Z,16.50
2022-10-23T10:48:10.961Z,16.89
2022-10-23T10:53:20.708Z,17.12
2022-10-23T10:57:38.252Z,17.37
2022-10-23T11:02:26.984Z,17.61
2022-10-23T11:06:41.359Z,17.94
2022-10-23T11:10:59.037Z,18.18
2022-10-23T11:15:39.953Z,18.29
2022-10-23T11:19:59.925Z,18.40
2022-10-23T11:24:26.213Z,18.57
2022-10-23T11:28:43.612Z,18.74
2022-10-23T11:33:23.756Z,18.91
2022-10-23T11:37:35.299Z,19.04
2022-10-23T11:41:55.093Z,19.22
2022-10-23T11:46:21.995Z,19.29
2022-10-23T11:50:51.177Z,19.09
2022-10-23T11:55:18.019Z,19.08
2022-10-23T11:59:32.709Z,19.22
2022-10-23T12:03:57.922Z,19.36
2022-10-23T12:08:27.712Z,19.52
2022-10-23T12:12:40.989Z,19.58
2022-10-23T12:16:52.671Z,19.42
2022-10-23T12:21:04.619Z,19.30
2022-10-23T12:25:38.582Z,19.28
2022-10-23T12:29:54.704Z,19.25
2022-10-23T12:34:18.580Z,19.18
2022-10-23T12:38:33.971Z,19.15
2022-10-23T12:42:54.425Z,19.13
2022-10-23T12:47:06.012Z,19.18
2022-10-23T12:51:24.855Z,19.22
2022-10-23T12:55:54.093Z,19.35
2022-10-23T13:00:12.962Z,19.42
2022-10-23T13:04:34.369Z,19.44
2022-10-23T13:08:47.792Z,19.54
2022-10-23T13:13:23.139Z,19.54
2022-10-23T13:18:01.219Z,19.46
2022-10-23T13:22:22.653Z,19.45
2022-10-23T13:26:45.584Z,19.37
2022-10-23T13:31:01.856Z,19.35
2022-10-23T13:35:23.345Z,19.36
2022-10-23T13:39:35.017Z,19.34
2022-10-23T13:43:48.359Z,19.39
2022-10-23T13:47:59.890Z,19.34
2022-10-23T13:52:14.353Z,19.34
2022-10-23T13:56:27.460Z,19.34
2022-10-23T14:00:40.069Z,19.35
2022-10-23T14:04:51.686Z,19.32
2022-10-23T14:09:05.389Z,19.34
2022-10-23T14:13:16.911Z,19.28
2022-10-23T14:17:28.453Z,19.27
2022-10-23T14:21:40.002Z,19.27
2022-10-23T14:25:51.524Z,19.21
2022-10-23T14:30:03.931Z,19.16
2022-10-23T14:34:15.494Z,19.02
2022-10-23T14:38:27.668Z,18.95
2022-10-23T14:42:39.253Z,18.94
2022-10-23T14:46:50.886Z,18.92
2022-10-23T14:51:02.433Z,19.03
2022-10-23T14:55:14.123Z,19.13
2022-10-23T14:59:25.808Z,19.14
2022-10-23T15:03:37.318Z,19.05
2022-10-23T15:07:48.828Z,18.91
2022-10-23T15:12:00.578Z,18.78
2022-10-23T15:16:12.321Z,18.71
2022-10-23T15:20:23.920Z,18.57
2022-10-23T15:24:35.522Z,18.49
2022-10-23T15:28:48.158Z,18.51
2022-10-23T15:32:59.721Z,18.38
2022-10-23T15:37:11.519Z,18.31
2022-10-23T15:41:31.642Z,18.24
2022-10-23T15:45:43.191Z,18.15
2022-10-23T15:49:54.735Z,18.06
2022-10-23T15:54:08.452Z,17.98
2022-10-23T15:58:19.948Z,17.93
2022-10-23T16:02:31.653Z,17.86
2022-10-23T16:06:46.381Z,17.77
2022-10-23T16:10:59.583Z,17.69
2022-10-23T16:15:11.073Z,17.71
2022-10-23T16:19:22.680Z,17.67
2022-10-23T16:23:34.461Z,17.60
2022-10-23T16:27:46.446Z,17.57
2022-10-23T16:31:59.767Z,17.46
2022-10-23T16:36:11.324Z,17.01
2022-10-23T16:41:03.690Z,16.95
2022-10-23T16:45:30.145Z,16.78
2022-10-23T16:49:43.764Z,16.66
2022-10-23T16:53:55.422Z,16.63
2022-10-23T16:58:06.956Z,16.74
2022-10-23T17:02:18.536Z,16.75
2022-10-23T17:06:32.689Z,16.80
2022-10-23T17:10:44.183Z,16.71
2022-10-23T17:14:55.708Z,16.60
2022-10-23T17:19:21.034Z,16.59
2022-10-23T17:23:41.642Z,16.57
2022-10-23T17:27:53.134Z,16.46
2022-10-23T17:32:04.942Z,16.43
2022-10-23T17:36:16.502Z,16.34
2022-10-23T17:40:30.874Z,16.31
2022-10-23T17:44:42.609Z,16.26
2022-10-23T17:48:57.148Z,16.21
2022-10-23T17:53:08.732Z,16.17
2022-10-23T17:57:20.312Z,16.12
2022-10-23T18:01:32.358Z,16.08
2022-10-23T18:05:44.058Z,16.03
2022-10-23T18:09:55.591Z,16.03
2022-10-23T18:14:07.541Z,16.01
2022-10-23T18:18:19.068Z,15.98
2022-10-23T18:22:33.044Z,15.98
2022-10-23T18:26:45.106Z,15.98
2022-10-23T18:30:57.197Z,15.98
2022-10-23T18:35:09.124Z,15.91
2022-10-23T18:39:23.686Z,15.83
2022-10-23T18:43:44.091Z,15.77
2022-10-23T18:47:55.990Z,15.81
2022-10-23T18:52:07.518Z,15.76
2022-10-23T18:56:22.843Z,15.72
2022-10-23T19:00:34.472Z,15.69
2022-10-23T19:04:46.202Z,15.68
2022-10-23T19:08:58.011Z,15.69
2022-10-23T19:13:09.655Z,15.60
2022-10-23T19:17:25.784Z,15.54
2022-10-23T19:21:38.787Z,15.51
2022-10-23T19:25:51.486Z,15.50
2022-10-23T19:30:06.362Z,15.47
2022-10-23T19:34:20.437Z,15.46
2022-10-23T19:38:32.786Z,15.40
2022-10-23T19:42:44.636Z,15.39
2022-10-23T19:46:56.299Z,15.34
2022-10-23T19:51:08.470Z,15.37
2022-10-23T19:55:20.140Z,15.41
2022-10-23T19:59:31.685Z,15.38
2022-10-23T20:03:45.482Z,15.36
2022-10-23T20:07:57.501Z,15.35
2022-10-23T20:12:09.034Z,15.36
2022-10-23T20:16:29.895Z,15.42
2022-10-23T20:20:42.364Z,15.40
2022-10-23T20:24:53.923Z,15.47
2022-10-23T20:29:05.594Z,15.57
2022-10-23T20:33:17.097Z,15.62
2022-10-23T20:37:28.598Z,15.62
2022-10-23T20:41:41.871Z,15.65
2022-10-23T20:45:53.368Z,15.61
2022-10-23T20:50:05.230Z,15.54
2022-10-23T20:54:16.745Z,15.49
2022-10-23T20:58:28.245Z,15.40
2022-10-23T21:02:39.832Z,15.36
2022-10-23T21:07:08.829Z,15.32
2022-10-23T21:11:20.738Z,15.33
2022-10-23T21:15:32.236Z,15.33
2022-10-23T21:19:43.875Z,15.26
2022-10-23T21:23:59.364Z,15.19
2022-10-23T21:28:11.053Z,15.20
